createdAt,value
2022-08-12T04:02:55.537Z,21.24
2022-08-12T04:05:57.996Z,21.24
2022-08-12T04:09:00.167Z,20.75
2022-08-12T04:12:23.044Z,20.78
2022-08-12T04:15:31.493Z,20.90
2022-08-12T04:18:34.100Z,20.82
2022-08-12T04:21:37.975Z,20.94
2022-08-12T04:25:01.582Z,20.92
2022-08-12T04:28:13.211Z,20.99
2022-08-12T04:31:16.146Z,21.03
2022-08-12T04:34:18.941Z,20.94
2022-08-12T04:37:21.490Z,20.95
2022-08-12T04:40:28.763Z,20.97
2022-08-12T04:43:59.944Z,20.94
2022-08-12T04:46:54.486Z,21.06
2022-08-12T04:49:56.827Z,21.09
2022-08-12T04:53:00.665Z,21.11
2022-08-12T04:56:04.589Z,21.15
2022-08-12T04:59:07.615Z,21.23
2022-08-12T05:02:10.078Z,21.35
2022-08-12T05:05:22.788Z,21.45
2022-08-12T05:08:26.461Z,21.38
2022-08-12T05:11:28.781Z,21.15
2022-08-12T05:14:37.034Z,21.14
2022-08-12T05:17:41.109Z,21.26
2022-08-12T05:20:44.629Z,21.17
2022-08-12T05:23:46.802Z,21.32
2022-08-12T05:26:49.226Z,21.30
2022-08-12T05:30:07.086Z,21.41
2022-08-12T05:33:15.697Z,21.45
2022-08-12T05:36:19.901Z,21.63
2022-08-12T05:39:22.252Z,21.87
2022-08-12T05:42:32.556Z,21.86
2022-08-12T05:45:41.541Z,21.86
2022-08-12T05:48:47.219Z,22.04
2022-08-12T05:51:49.610Z,22.09
2022-08-12T05:54:57.593Z,22.20
2022-08-12T05:58:02.883Z,22.30
2022-08-12T06:02:11.378Z,22.34
2022-08-12T06:04:27.439Z,22.26
2022-08-12T06:07:42.800Z,22.39
2022-08-12T06:10:52.085Z,22.60
2022-08-12T06:13:55.606Z,22.68
2022-08-12T06:16:59.901Z,22.70
2022-08-12T06:20:26.237Z,22.78
2022-08-12T06:23:28.582Z,22.83
2022-08-12T06:26:30.728Z,22.97
2022-08-12T06:30:09.134Z,23.00
2022-08-12T06:33:11.266Z,22.96
2022-08-12T06:36:21.194Z,23.08
2022-08-12T06:39:24.444Z,23.30
2022-08-12T06:42:52.725Z,23.45
2022-08-12T06:45:58.050Z,23.47
2022-08-12T06:49:00.549Z,23.44
2022-08-12T06:52:11.807Z,23.21
2022-08-12T06:55:20.902Z,23.23
2022-08-12T06:58:25.082Z,23.30
2022-08-12T07:01:27.557Z,23.35
2022-08-12T07:04:38.410Z,23.39
2022-08-12T07:07:41.765Z,23.42
2022-08-12T07:10:58.935Z,23.59
2022-08-12T07:14:12.325Z,23.81
2022-08-12T07:17:15.449Z,23.99
2022-08-12T07:20:42.638Z,24.02
2022-08-12T07:23:41.742Z,23.99
2022-08-12T07:26:44.650Z,24.05
2022-08-12T07:29:58.219Z,24.15
2022-08-12T07:33:08.914Z,24.16
2022-08-12T07:36:13.978Z,24.22
2022-08-12T07:39:17.005Z,24.12
2022-08-12T07:42:19.135Z,24.15
2022-08-12T07:45:22.025Z,24.22
2022-08-12T07:48:24.615Z,24.34
2022-08-12T07:51:28.345Z,24.40
2022-08-12T07:54:30.415Z,24.35
2022-08-12T07:57:33.217Z,24.29
2022-08-12T08:00:37.529Z,24.32
2022-08-12T08:04:01.393Z,24.20
2022-08-12T08:07:03.649Z,24.34
2022-08-12T08:10:10.943Z,24.37
2022-08-12T08:13:13.628Z,24.43
2022-08-12T08:16:16.069Z,24.49
2022-08-12T08:19:23.829Z,24.53
2022-08-12T08:22:41.849Z,24.47
2022-08-12T08:25:45.430Z,24.63
2022-08-12T08:28:48.178Z,24.69
2022-08-12T08:31:54.340Z,24.62
2022-08-12T08:34:56.666Z,24.64
2022-08-12T08:38:28.715Z,24.78
2022-08-12T08:42:17.088Z,24.79
2022-08-12T08:45:16.290Z,24.75
2022-08-12T08:48:18.735Z,24.97
2022-08-12T08:51:24.163Z,25.06
2022-08-12T08:54:26.504Z,25.04
2022-08-12T08:57:43.810Z,25.11
2022-08-12T09:00:50.922Z,25.11
2022-08-12T09:05:07.832Z,25.17
2022-08-12T09:07:51.708Z,25.29
2022-08-12T09:10:45.364Z,25.30
2022-08-12T09:14:12.509Z,25.45
2022-08-12T09:20:39.518Z,25.43
2022-08-12T09:24:00.418Z,25.51
2022-08-12T09:27:06.385Z,25.47
2022-08-12T09:30:16.141Z,25.51
2022-08-12T09:34:25.677Z,25.51
2022-08-12T09:36:57.969Z,25.66
2022-08-12T09:40:57.418Z,25.70
2022-08-12T09:43:53.595Z,25.72
2022-08-12T09:47:03.301Z,25.82
2022-08-12T09:50:20.535Z,25.93
2022-08-12T09:53:36.556Z,25.90
2022-08-12T09:57:02.653Z,25.97
2022-08-12T10:00:13.407Z,25.88
2022-08-12T10:03:32.512Z,26.04
2022-08-12T10:06:36.051Z,25.99
2022-08-12T10:09:57.514Z,25.99
2022-08-12T10:13:34.832Z,26.00
2022-08-12T10:16:45.731Z,26.07
2022-08-12T10:19:52.041Z,26.06
2022-08-12T10:22:59.122Z,26.12
2022-08-12T10:26:37.858Z,26.13
2022-08-12T10:30:38.908Z,26.19
2022-08-12T10:33:18.476Z,26.42
2022-08-12T10:36:40.619Z,26.53
2022-08-12T10:40:01.575Z,26.63
2022-08-12T10:43:26.634Z,26.64
2022-08-12T10:46:30.576Z,26.68
2022-08-12T10:50:03.422Z,26.74
2022-08-12T10:52:56.850Z,26.75
2022-08-12T10:56:00.374Z,26.64
2022-08-12T10:59:11.061Z,26.62
2022-08-12T11:04:20.197Z,26.60
2022-08-12T11:07:06.816Z,26.67
2022-08-12T11:09:00.393Z,26.74
2022-08-12T11:12:35.506Z,26.77
2022-08-12T11:16:03.023Z,26.82
2022-08-12T11:18:55.596Z,26.86
2022-08-12T11:22:01.235Z,26.83
2022-08-12T11:25:10.433Z,26.91
2022-08-12T11:28:15.884Z,26.91
2022-08-12T11:31:18.207Z,26.98
2022-08-12T11:34:53.757Z,27.10
2022-08-12T11:37:59.088Z,27.11
2022-08-12T11:41:05.040Z,27.13
2022-08-12T11:44:43.001Z,27.22
2022-08-12T11:47:29.462Z,27.26
2022-08-12T11:50:32.919Z,27.22
2022-08-12T11:53:59.019Z,27.20
2022-08-12T11:57:02.980Z,27.26
2022-08-12T12:03:48.232Z,27.13
2022-08-12T12:06:52.952Z,27.17
2022-08-12T12:09:55.822Z,27.27
2022-08-12T12:12:57.959Z,27.29
2022-08-12T12:16:00.312Z,27.32
2022-08-12T12:19:02.478Z,27.26
2022-08-12T12:22:04.831Z,27.27
2022-08-12T12:25:13.376Z,27.26
2022-08-12T12:28:36.597Z,27.21
2022-08-12T12:32:10.876Z,27.14
2022-08-12T12:35:13.466Z,27.11
2022-08-12T12:38:25.188Z,27.22
2022-08-12T12:42:42.551Z,27.20
2022-08-12T12:44:53.754Z,27.25
2022-08-12T12:47:58.745Z,27.35
2022-08-12T12:51:48.550Z,27.42
2022-08-12T12:54:52.302Z,27.52
2022-08-12T12:58:00.527Z,27.52
2022-08-12T13:01:04.783Z,27.50
2022-08-12T13:04:27.041Z,27.56
2022-08-12T13:07:54.437Z,27.51
2022-08-12T13:10:53.063Z,27.45
2022-08-12T13:14:09.984Z,27.52
2022-08-12T13:17:17.465Z,27.51
2022-08-12T13:20:37.751Z,27.47
2022-08-12T13:23:42.042Z,27.45
2022-08-12T13:26:47.197Z,27.57
2022-08-12T13:29:50.018Z,27.57
2022-08-12T13:32:58.501Z,27.66
2022-08-12T13:36:06.295Z,27.69
2022-08-12T13:39:12.590Z,27.58
2022-08-12T13:42:22.852Z,27.69
2022-08-12T13:45:26.597Z,27.61
2022-08-12T13:48:31.081Z,27.60
2022-08-12T13:51:41.023Z,27.67
2022-08-12T13:54:43.562Z,27.79
2022-08-12T13:57:59.854Z,27.82
2022-08-12T14:01:05.508Z,27.91
2022-08-12T14:04:12.327Z,27.85
2022-08-12T14:07:14.693Z,27.94
2022-08-12T14:10:36.287Z,28.05
2022-08-12T14:14:05.570Z,28.05
2022-08-12T14:17:05.658Z,28.13
2022-08-12T14:20:14.544Z,28.01
2022-08-12T14:24:01.411Z,27.85
2022-08-12T14:26:46.955Z,27.76
2022-08-12T14:30:03.947Z,27.68
2022-08-12T14:33:09.149Z,27.70
2022-08-12T14:36:21.953Z,27.83
2022-08-12T14:39:25.094Z,27.91
2022-08-12T14:42:28.789Z,28.01
